Nearby METAR Reports

 

KNUQ - Moffett Nas/Mtn, California, USA
Distance from station: N 9mi, 14km
Updated: Sat, 23-Mar-2019 2:56am PDT
Light rain, Overcast
Light rain, Overcast
 Wind from E
Wind: E 3 mph , 6 km/h
Temperature: 54°F , 12°C
Dew Point: 54°F , 12°C
Humidity: 100%
Barometer: 30.15 inHg , 1021 hPa
Summary: Light Rain
Clouds: Overcast
Visibility: 9 miles , 14 km
Cloud details: Few Clouds 2400 ft
Few Clouds 3300 ft
Overcast 6000 ft
2019/03/23 09:56 KNUQ 230956Z AUTO 09003KT 9SM -RA FEW024 FEW033 OVC060 12/12 A3015 RMK AO2 SLP211 P0009 T01220122 $
KSJC - San Jose, California, USA
Distance from station: NE 9mi, 14km
Updated: Sat, 23-Mar-2019 2:53am PDT
Light rain, Overcast
Light rain, Overcast
 Wind from SSE
Wind: SSE 9 mph , 15 km/h
Temperature: 54°F , 12°C
Dew Point: 30°F , -1°C
Humidity: 41%
Barometer: 30.14 inHg , 1020.7 hPa
Summary: Light Rain
Clouds: Overcast
Visibility: 7 miles , 11 km
Cloud details: Few Clouds 2900 ft
Mostly Cloudy 4200 ft
Overcast 6000 ft
2019/03/23 09:53 KSJC 230953Z AUTO 16008KT 7SM -RA FEW029 BKN042 OVC060 12/M01 A3014 RMK AO2 SLP206 P0009 T01171006
 
KRHV - San Jose/Reid, California, USA
Distance from station: ENE 12mi, 19km
Updated: Fri, 22-Mar-2019 9:47pm PDT
NOT Current
Rain, Overcast
Rain, Overcast
 Wind from SE
Wind: SE 6 mph , 9 km/h
Temperature: 55°F , 13°C
Dew Point: 52°F , 11°C
Humidity: 88%
Barometer: 30.13 inHg , 1020.3 hPa
Summary: Rain
Clouds: Overcast
Visibility: 10 miles , 16 km
Cloud details: Mostly Cloudy 3000 ft
Overcast 8000 ft
2019/03/23 04:47 KRHV 230447Z 14005KT 10SM RA BKN030 OVC080 13/11 A3013
KPAO - Palo Alto, California, USA
Distance from station: NNW 14mi, 23km
Updated: Fri, 22-Mar-2019 8:47pm PDT
NOT Current
Overcast
Overcast
 Wind from SE
Wind: SE 12 mph , 19 km/h
Temperature: 55°F , 13°C
Dew Point: 52°F , 11°C
Humidity: 88%
Barometer: 30.14 inHg , 1020.7 hPa
Clouds: Overcast
Visibility: 10 miles , 16 km
Cloud details: Mostly Cloudy 5000 ft
Overcast 6000 ft
2019/03/23 03:47 KPAO 230347Z 14010KT 10SM BKN050 OVC060 13/11 A3014
 
KSQL - San Carlos Airpo, California, USA
Distance from station: NW 21mi, 34km
Updated: Sat, 23-Mar-2019 3:00am PDT
Light rain, Overcast
Light rain, Overcast
 Wind from SSE
Wind: SSE 5 mph , 7 km/h
Temperature: 54°F , 12°C
Dew Point: 54°F , 12°C
Humidity: 100%
Barometer: 30.14 inHg , 1020.7 hPa
Summary: Light Rain
Clouds: Overcast
Visibility: 5 miles , 8 km
Cloud details: Few Clouds 300 ft
Overcast 4900 ft
2019/03/23 10:00 KSQL 231000Z AUTO 15004KT 5SM -RA FEW003 OVC049 12/12 A3014 RMK AO2 P0005
KWVI - Watsonville, California, USA
Distance from station: SSE 27mi, 44km
Updated: Sat, 23-Mar-2019 3:03am PDT
Light rain, Overcast
Light rain, Overcast
 Wind from N
Wind: N 5 mph , 7 km/h
Temperature: 52°F , 11°C
Dew Point: 52°F , 11°C
Humidity: 100%
Barometer: 30.15 inHg , 1021 hPa
Summary: Light Rain
Clouds: Overcast
Visibility: 10 miles , 16 km
Cloud details: Partly Cloudy 1700 ft
Overcast 3000 ft
2019/03/23 10:03 KWVI 231003Z AUTO 36004KT 10SM -RA SCT017 OVC030 11/11 A3015 RMK AO2 P0001 T01110106
 
KHWD - Hayward, California, USA
Distance from station: N 28mi, 44km
Updated: Sat, 23-Mar-2019 2:54am PDT
Light rain, Overcast
Light rain, Overcast
 Wind from SE
Wind: SE 7 mph , 11 km/h
Temperature: 63°F , 17°C
Dew Point: 52°F , 11°C
Humidity: 68%
Barometer: 30.13 inHg , 1020.3 hPa
Summary: Light Rain
Clouds: Overcast
Visibility: 8 miles , 13 km
Cloud details: Overcast 6500 ft
2019/03/23 09:54 KHWD 230954Z AUTO 14006KT 8SM -RA OVC065 17/11 A3013 RMK AO2 SLP212 P0000 T01720106
KSFO - San Francisco, California, USA
Distance from station: NW 30mi, 49km
Updated: Sat, 23-Mar-2019 2:56am PDT
Rain, Mist, Overcast
Rain, Mist, Overcast
 Wind from SE
Wind: SE 5 mph , 7 km/h
Temperature: 54°F , 12°C
Dew Point: 52°F , 11°C
Humidity: 94%
Barometer: 30.13 inHg , 1020.3 hPa
Summary: Rain, Mist
Clouds: Overcast
Visibility: 4 miles , 6 km
Cloud details: Overcast 6000 ft
2019/03/23 09:56 KSFO 230956Z 13004KT 4SM RA BR OVC060 12/11 A3013 RMK AO2 SLP202 P0006 T01220111
 
KHAF - Half Moon Bay, California, USA
Distance from station: WNW 31mi, 50km
Updated: Sat, 23-Mar-2019 3:00am PDT
Light rain, Mostly cloudy
Light rain, Mostly cloudy
 Wind from SSE
Wind: SSE 3 mph , 6 km/h
Temperature: 54°F , 12°C
Dew Point: 54°F , 12°C
Humidity: 100%
Barometer: 30.14 inHg , 1020.7 hPa
Summary: Light Rain
Clouds: Mostly Cloudy
Visibility: 7 miles , 11 km
Cloud details: Few Clouds 3100 ft
Partly Cloudy 4300 ft
Mostly Cloudy 5000 ft
2019/03/23 10:00 KHAF 231000Z AUTO 15003KT 7SM -RA FEW031 SCT043 BKN050 12/12 A3014 RMK AO2 P0005
KOAK - Oakland, California, USA
Distance from station: NNW 31mi, 50km
Updated: Sat, 23-Mar-2019 2:53am PDT
Light rain, Overcast
Light rain, Overcast
 Wind from S
Wind: S 8 mph , 13 km/h
Temperature: 55°F , 13°C
Dew Point: 52°F , 11°C
Humidity: 88%
Barometer: 30.15 inHg , 1021 hPa
Summary: Light Rain
Clouds: Overcast
Visibility: 10 miles , 16 km
Cloud details: Few Clouds 1000 ft
Partly Cloudy 4000 ft
Overcast 7000 ft
2019/03/23 09:53 KOAK 230953Z 19007KT 10SM -RA FEW010 SCT040 OVC070 13/11 A3015 RMK AO2 SLP208 P0002 T01280111 $
 
KLVK - Livermore, California, USA
Distance from station: NNE 31mi, 51km
Updated: Sat, 23-Mar-2019 2:53am PDT
Light rain, Mist, Overcast
Light rain, Mist, Overcast
 Wind from SSW
Wind: SSW 5 mph , 7 km/h
Temperature: 54°F , 12°C
Dew Point: 52°F , 11°C
Humidity: 94%
Barometer: 30.13 inHg , 1020.3 hPa
Summary: Light rain, Mist
Clouds: Overcast
Visibility: 4 miles , 6 km
Cloud details: Few Clouds 2400 ft
Overcast 5500 ft
2019/03/23 09:53 KLVK 230953Z AUTO 21004KT 4SM -RA BR FEW024 OVC055 12/11 A3013 RMK AO2 SLP201 P0005 T01170106
KCVH - Hollister Muni, California, USA
Distance from station: SE 42mi, 68km
Updated: Sat, 23-Mar-2019 2:55am PDT
Overcast
Overcast
 Wind from calm
Wind: Calm
Temperature: 54°F , 12°C
Dew Point: 52°F , 11°C
Humidity: 94%
Barometer: 30.15 inHg , 1021 hPa
Clouds: Overcast
Visibility: 8 miles , 13 km
Cloud details: Overcast 1500 ft
2019/03/23 09:55 KCVH 230955Z AUTO 00000KT 8SM OVC015 12/11 A3015 RMK A01 P0001
 
KSNS - Salinas, California, USA
Distance from station: SSE 48mi, 77km
Updated: Sat, 23-Mar-2019 2:53am PDT
Light rain, Overcast
Light rain, Overcast
 Wind from calm
Wind: Calm
Temperature: 54°F , 12°C
Dew Point: 52°F , 11°C
Humidity: 94%
Barometer: 30.14 inHg , 1020.7 hPa
Summary: Light Rain
Clouds: Overcast
Visibility: 7 miles , 11 km
Cloud details: Mostly Cloudy 3700 ft
Overcast 7000 ft
2019/03/23 09:53 KSNS 230953Z AUTO 00000KT 7SM -RA BKN037 OVC070 12/11 A3014 RMK AO2 SLP215 P0001 T01220106
KMRY - Monterey, California, USA
Distance from station: SSE 49mi, 78km
Updated: Sat, 23-Mar-2019 2:54am PDT
Rain, Mist, Overcast
Rain, Mist, Overcast
 Wind from calm
Wind: Calm
Temperature: 54°F , 12°C
Dew Point: 52°F , 11°C
Humidity: 94%
Barometer: 30.15 inHg , 1021 hPa
Summary: Rain, Mist
Clouds: Overcast
Visibility: 5 miles , 8 km
Cloud details: Partly Cloudy 1300 ft
Mostly Cloudy 3000 ft
Overcast 4700 ft
2019/03/23 09:54 KMRY 230954Z AUTO 00000KT 5SM RA BR SCT013 BKN030 OVC047 12/11 A3015 RMK AO2 SLP223 P0004 T01220106
 
KCCR - Concord, California, USA
Distance from station: N 50mi, 81km
Updated: Sat, 23-Mar-2019 2:53am PDT
Overcast
Overcast
 Wind from calm
Wind: Calm
Temperature: 55°F , 13°C
Dew Point: 50°F , 10°C
Humidity: 82%
Barometer: 30.13 inHg , 1020.3 hPa
Clouds: Overcast
Visibility: 10 miles , 16 km
Cloud details: Overcast 7500 ft
2019/03/23 09:53 KCCR 230953Z AUTO 00000KT 10SM OVC075 13/10 A3013 RMK AO2 RAE38 SLP190 P0008 T01280100

Metar display script from Saratoga-Weather.org